Time;durP1;ratioP1;P1;durP2;ratioP2;P2;SDS_P1;SDS_P2;PMS_P1;PMS_P2;Temp;Humidity;BMP_temperature;BMP_pressure;BME280_temperature;BME280_humidity;BME280_pressure;Samples;Min_cycle;Max_cycle;Signal;HPM_P1;HPM_P2
2021/12/09 00:01:09;;;;;;;0.40;0.40;;;;;;;;;;5095039;28;20168;-66
2021/12/09 00:03:38;;;;;;;0.50;0.50;;;;;;;;;;5077792;28;20235;-66
2021/12/09 00:06:05;;;;;;;0.40;0.40;;;;;;;;;;5074998;28;20816;-66
2021/12/09 00:08:32;;;;;;;0.50;0.50;;;;;;;;;;5077073;28;20283;-66
2021/12/09 00:10:59;;;;;;;0.50;0.50;;;;;;;;;;5074718;28;20175;-66
2021/12/09 00:13:26;;;;;;;0.40;0.40;;;;;;;;;;5090399;28;20656;-66
2021/12/09 00:15:52;;;;;;;0.50;0.50;;;;;;;;;;5078613;28;20201;-66
2021/12/09 00:18:19;;;;;;;0.50;0.50;;;;;;;;;;5083252;28;20207;-66
2021/12/09 00:20:45;;;;;;;0.50;0.50;;;;;;;;;;5094914;28;20781;-66
2021/12/09 00:23:11;;;;;;;0.40;0.40;;;;;;;;;;5093253;28;20177;-66
2021/12/09 00:25:38;;;;;;;0.50;0.50;;;;;;;;;;5081239;28;20608;-66
2021/12/09 00:28:04;;;;;;;0.50;0.50;;;;;;;;;;5075413;28;20186;-66
2021/12/09 00:30:31;;;;;;;0.50;0.50;;;;;;;;;;5057451;28;20694;-66
2021/12/09 00:33:01;;;;;;;0.50;0.50;;;;;;;;;;5075724;28;20208;-66
2021/12/09 00:35:32;;;;;;;0.40;0.40;;;;;;;;;;5075648;28;20290;-66
2021/12/09 00:38:06;;;;;;;0.50;0.50;;;;;;;;;;5075654;28;20209;-66
2021/12/09 00:40:32;;;;;;;0.40;0.40;;;;;;;;;;5077019;28;20258;-67
2021/12/09 00:42:58;;;;;;;0.50;0.50;;;;;;;;;;5094560;28;20177;-66
2021/12/09 00:45:24;;;;;;;0.40;0.40;;;;;;;;;;5092649;28;20191;-66
2021/12/09 00:47:51;;;;;;;0.40;0.40;;;;;;;;;;5092886;28;20425;-65
2021/12/09 00:50:18;;;;;;;0.40;0.40;;;;;;;;;;5081656;28;20567;-65
2021/12/09 00:52:44;;;;;;;0.40;0.40;;;;;;;;;;5075365;28;20209;-65
2021/12/09 00:55:11;;;;;;;0.40;0.40;;;;;;;;;;5057091;28;20244;-65
2021/12/09 00:57:38;;;;;;;0.50;0.50;;;;;;;;;;5059168;28;20241;-65
2021/12/09 01:00:09;;;;;;;0.40;0.40;;;;;;;;;;5092215;28;20678;-64
2021/12/09 01:02:35;;;;;;;0.50;0.50;;;;;;;;;;5092426;28;20205;-65
2021/12/09 01:05:02;;;;;;;0.50;0.50;;;;;;;;;;5092109;28;20200;-65
2021/12/09 01:07:28;;;;;;;0.40;0.40;;;;;;;;;;5080378;28;20181;-65
2021/12/09 01:09:54;;;;;;;0.40;0.40;;;;;;;;;;5074438;28;20190;-65
2021/12/09 01:12:20;;;;;;;0.50;0.50;;;;;;;;;;5056126;28;20934;-65
2021/12/09 01:14:46;;;;;;;0.40;0.40;;;;;;;;;;5092135;28;20437;-65
2021/12/09 01:17:12;;;;;;;0.40;0.40;;;;;;;;;;5075189;28;20985;-65
2021/12/09 01:19:38;;;;;;;0.50;0.50;;;;;;;;;;5081013;28;20794;-65
2021/12/09 01:22:05;;;;;;;0.40;0.40;;;;;;;;;;5078293;28;20179;-65
2021/12/09 01:24:31;;;;;;;0.40;0.40;;;;;;;;;;5075205;28;20270;-65
2021/12/09 01:26:58;;;;;;;0.40;0.40;;;;;;;;;;5093720;28;20639;-65
2021/12/09 01:29:33;;;;;;;0.40;0.40;;;;;;;;;;5093617;28;20169;-65
2021/12/09 01:32:02;;;;;;;0.40;0.40;;;;;;;;;;5086103;28;20206;-65
2021/12/09 01:34:29;;;;;;;0.50;0.50;;;;;;;;;;5081005;28;20523;-65
2021/12/09 01:36:55;;;;;;;0.50;0.50;;;;;;;;;;5091776;28;20325;-65
2021/12/09 01:39:21;;;;;;;0.40;0.40;;;;;;;;;;5076945;28;20729;-65
2021/12/09 01:41:47;;;;;;;0.40;0.40;;;;;;;;;;5073002;28;20455;-65
2021/12/09 01:44:13;;;;;;;0.40;0.40;;;;;;;;;;5084084;28;20175;-65
2021/12/09 01:46:40;;;;;;;0.50;0.50;;;;;;;;;;5075071;28;20200;-65
2021/12/09 01:49:06;;;;;;;0.40;0.40;;;;;;;;;;5091604;28;20651;-65
2021/12/09 01:51:32;;;;;;;0.40;0.40;;;;;;;;;;5079774;28;20189;-65
2021/12/09 01:53:58;;;;;;;0.50;0.50;;;;;;;;;;5093078;28;20233;-65
2021/12/09 01:56:26;;;;;;;0.50;0.50;;;;;;;;;;5092942;28;20213;-65
2021/12/09 01:58:57;;;;;;;0.50;0.50;;;;;;;;;;5078769;28;20216;-65
2021/12/09 02:01:24;;;;;;;0.40;0.40;;;;;;;;;;5073590;28;20180;-65
2021/12/09 02:03:50;;;;;;;0.40;0.40;;;;;;;;;;5082759;28;20183;-66
2021/12/09 02:06:16;;;;;;;0.40;0.40;;;;;;;;;;5089692;28;20288;-66
2021/12/09 02:08:43;;;;;;;0.50;0.50;;;;;;;;;;5072790;28;20206;-66
2021/12/09 02:11:09;;;;;;;0.50;0.50;;;;;;;;;;5072430;28;20223;-65
2021/12/09 02:13:35;;;;;;;0.40;0.40;;;;;;;;;;5075440;28;20188;-66
2021/12/09 02:16:01;;;;;;;0.50;0.50;;;;;;;;;;5092196;28;20347;-65
2021/12/09 02:18:27;;;;;;;0.40;0.40;;;;;;;;;;5075031;28;20469;-65
2021/12/09 02:21:08;;;;;;;0.40;0.40;;;;;;;;;;5084471;28;20180;-65
2021/12/09 02:23:34;;;;;;;0.50;0.50;;;;;;;;;;5090478;28;20416;-65
2021/12/09 02:26:00;;;;;;;0.50;0.50;;;;;;;;;;5092349;28;20548;-66
2021/12/09 02:28:27;;;;;;;0.50;0.50;;;;;;;;;;5090290;28;20735;-65
2021/12/09 02:30:53;;;;;;;0.50;0.50;;;;;;;;;;5075721;28;20551;-66
2021/12/09 02:33:19;;;;;;;0.40;0.40;;;;;;;;;;5073130;28;20179;-65
2021/12/09 02:35:45;;;;;;;0.40;0.40;;;;;;;;;;5072032;28;20199;-65
2021/12/09 02:38:11;;;;;;;0.50;0.50;;;;;;;;;;5082376;28;20200;-65
2021/12/09 02:40:37;;;;;;;0.50;0.50;;;;;;;;;;5077144;28;20765;-65
2021/12/09 02:43:05;;;;;;;0.50;0.50;;;;;;;;;;5072298;28;20519;-65
2021/12/09 02:45:31;;;;;;;0.40;0.40;;;;;;;;;;5071875;28;20180;-65
2021/12/09 02:47:57;;;;;;;0.40;0.40;;;;;;;;;;5079441;28;20775;-65
2021/12/09 02:50:23;;;;;;;0.50;0.50;;;;;;;;;;5071640;28;20177;-65
2021/12/09 02:52:49;;;;;;;0.40;0.40;;;;;;;;;;5072768;28;20508;-65
2021/12/09 02:55:15;;;;;;;0.50;0.50;;;;;;;;;;5083026;28;20877;-65
2021/12/09 02:57:41;;;;;;;0.50;0.50;;;;;;;;;;5073465;28;20258;-65
2021/12/09 03:00:08;;;;;;;0.50;0.50;;;;;;;;;;5075229;28;20343;-65
2021/12/09 03:02:34;;;;;;;0.50;0.50;;;;;;;;;;5089001;28;20422;-65
2021/12/09 03:05:03;;;;;;;0.40;0.40;;;;;;;;;;5091367;28;20205;-65
2021/12/09 03:07:33;;;;;;;0.50;0.50;;;;;;;;;;5090057;28;20169;-65
2021/12/09 03:10:01;;;;;;;0.50;0.50;;;;;;;;;;5080632;28;20544;-65
2021/12/09 03:12:32;;;;;;;0.50;0.50;;;;;;;;;;5072463;28;20648;-65
2021/12/09 03:14:58;;;;;;;0.40;0.40;;;;;;;;;;5077631;28;20198;-65
2021/12/09 03:17:24;;;;;;;0.50;0.50;;;;;;;;;;5089891;28;20237;-65
2021/12/09 03:19:50;;;;;;;0.50;0.50;;;;;;;;;;5088136;28;20283;-65
2021/12/09 03:22:17;;;;;;;0.40;0.40;;;;;;;;;;5086103;28;20254;-65
2021/12/09 03:24:43;;;;;;;0.40;0.40;;;;;;;;;;5072354;28;20201;-65
2021/12/09 03:27:09;;;;;;;0.50;0.50;;;;;;;;;;5070987;28;20187;-65
2021/12/09 03:29:35;;;;;;;0.50;0.50;;;;;;;;;;5071899;28;20186;-65
2021/12/09 03:32:06;;;;;;;0.50;0.50;;;;;;;;;;5071150;28;20189;-65
2021/12/09 03:34:36;;;;;;;0.50;0.50;;;;;;;;;;5072389;28;20188;-65
2021/12/09 03:37:04;;;;;;;0.50;0.50;;;;;;;;;;5085890;28;20178;-65
2021/12/09 03:39:32;;;;;;;0.40;0.40;;;;;;;;;;5089704;28;20260;-66
2021/12/09 03:41:58;;;;;;;0.50;0.50;;;;;;;;;;5089512;28;20588;-65
2021/12/09 03:44:24;;;;;;;0.50;0.50;;;;;;;;;;5089587;28;20181;-65
2021/12/09 03:46:52;;;;;;;0.50;0.50;;;;;;;;;;5089606;28;20198;-65
2021/12/09 03:49:18;;;;;;;0.50;0.50;;;;;;;;;;5089659;28;20184;-65
2021/12/09 03:51:44;;;;;;;0.50;0.50;;;;;;;;;;5090801;28;20172;-65
2021/12/09 03:54:10;;;;;;;0.50;0.50;;;;;;;;;;5086147;28;20191;-65
2021/12/09 03:56:38;;;;;;;0.50;0.50;;;;;;;;;;5072081;28;20459;-65
2021/12/09 03:59:04;;;;;;;0.40;0.40;;;;;;;;;;5072371;28;20213;-66
2021/12/09 04:01:31;;;;;;;0.50;0.50;;;;;;;;;;5071887;28;20182;-65
2021/12/09 04:03:57;;;;;;;0.40;0.40;;;;;;;;;;5069847;28;20258;-65
2021/12/09 04:06:23;;;;;;;0.40;0.40;;;;;;;;;;5072024;28;20209;-65
2021/12/09 04:08:49;;;;;;;0.50;0.50;;;;;;;;;;5079686;28;20179;-65
2021/12/09 04:11:17;;;;;;;0.50;0.50;;;;;;;;;;5086818;28;20556;-65
2021/12/09 04:13:43;;;;;;;0.50;0.50;;;;;;;;;;5075644;28;20182;-65
2021/12/09 04:16:09;;;;;;;0.50;0.50;;;;;;;;;;5089242;28;20261;-65
2021/12/09 04:18:36;;;;;;;0.50;0.50;;;;;;;;;;5089344;28;20631;-65
2021/12/09 04:21:02;;;;;;;0.50;0.50;;;;;;;;;;5089178;28;20176;-65
2021/12/09 04:23:29;;;;;;;0.50;0.50;;;;;;;;;;5072374;28;20177;-65
2021/12/09 04:25:56;;;;;;;0.50;0.50;;;;;;;;;;5086938;28;20192;-65
2021/12/09 04:28:22;;;;;;;0.60;0.60;;;;;;;;;;5089346;28;20225;-65
2021/12/09 04:30:49;;;;;;;0.50;0.50;;;;;;;;;;5080254;28;20180;-65
2021/12/09 04:33:15;;;;;;;0.40;0.40;;;;;;;;;;5072283;28;20576;-65
2021/12/09 04:35:41;;;;;;;0.40;0.40;;;;;;;;;;5072167;28;20244;-65
2021/12/09 04:38:07;;;;;;;0.50;0.50;;;;;;;;;;5071858;28;20199;-65
2021/12/09 04:40:33;;;;;;;0.50;0.50;;;;;;;;;;5079263;28;20178;-65
2021/12/09 04:43:00;;;;;;;0.50;0.50;;;;;;;;;;5092834;28;20417;-65
2021/12/09 04:45:27;;;;;;;0.40;0.40;;;;;;;;;;5090637;28;20192;-65
2021/12/09 04:47:53;;;;;;;0.50;0.50;;;;;;;;;;5075310;28;20173;-66
2021/12/09 04:50:19;;;;;;;0.50;0.50;;;;;;;;;;5075014;28;20251;-65
2021/12/09 04:52:45;;;;;;;0.50;0.50;;;;;;;;;;5075215;28;20176;-65
2021/12/09 04:55:11;;;;;;;0.50;0.50;;;;;;;;;;5094058;22;20540;-64
2021/12/09 04:57:38;;;;;;;0.50;0.50;;;;;;;;;;5073796;28;20554;-66
2021/12/09 05:00:06;;;;;;;0.50;0.50;;;;;;;;;;5073266;28;20264;-66
2021/12/09 05:05:17;;;;;;;0.50;0.50;;;;;;;;;;5073779;28;20580;-67
2021/12/09 05:07:43;;;;;;;0.50;0.50;;;;;;;;;;5070667;28;20266;-64
2021/12/09 05:10:09;;;;;;;0.50;0.50;;;;;;;;;;5053773;28;20204;-65
2021/12/09 05:12:35;;;;;;;0.50;0.50;;;;;;;;;;5062989;28;20213;-65
2021/12/09 05:15:01;;;;;;;0.40;0.40;;;;;;;;;;5061537;28;20259;-65
2021/12/09 05:17:27;;;;;;;0.50;0.50;;;;;;;;;;5055740;28;20629;-65
2021/12/09 05:19:53;;;;;;;0.50;0.50;;;;;;;;;;5057045;28;20706;-65
2021/12/09 05:22:19;;;;;;;0.60;0.60;;;;;;;;;;5072538;28;20863;-64
2021/12/09 05:24:49;;;;;;;0.57;0.57;;;;;;;;;;5057859;28;20453;-65
2021/12/09 05:27:15;;;;;;;0.50;0.50;;;;;;;;;;5060188;28;20800;-65
2021/12/09 05:29:43;;;;;;;0.50;0.50;;;;;;;;;;5073714;28;20233;-66
2021/12/09 05:32:11;;;;;;;0.50;0.50;;;;;;;;;;5063314;28;20238;-64
2021/12/09 05:34:39;;;;;;;0.50;0.50;;;;;;;;;;5053378;28;20178;-65
2021/12/09 05:37:07;;;;;;;0.50;0.50;;;;;;;;;;5053298;28;20215;-66
2021/12/09 05:39:33;;;;;;;0.50;0.50;;;;;;;;;;5054850;28;20216;-67
2021/12/09 05:41:59;;;;;;;0.50;0.50;;;;;;;;;;5073053;28;20585;-66
2021/12/09 05:44:26;;;;;;;0.50;0.50;;;;;;;;;;5055466;28;20609;-64
2021/12/09 05:46:52;;;;;;;0.40;0.40;;;;;;;;;;5067419;28;20192;-63
2021/12/09 05:49:19;;;;;;;0.50;0.50;;;;;;;;;;5071956;28;20177;-65
2021/12/09 05:51:45;;;;;;;0.50;0.50;;;;;;;;;;5051666;28;20188;-65
2021/12/09 05:54:12;;;;;;;0.50;0.50;;;;;;;;;;5052938;28;20711;-66
2021/12/09 05:56:38;;;;;;;0.50;0.50;;;;;;;;;;5034891;28;20308;-66
2021/12/09 05:59:04;;;;;;;0.50;0.50;;;;;;;;;;5052963;28;20341;-66
2021/12/09 06:01:30;;;;;;;0.60;0.60;;;;;;;;;;5059773;28;20427;-66
2021/12/09 06:03:56;;;;;;;0.47;0.47;;;;;;;;;;5072642;28;20164;-66
2021/12/09 06:06:22;;;;;;;0.50;0.50;;;;;;;;;;5053883;28;20193;-66
2021/12/09 06:08:49;;;;;;;0.50;0.50;;;;;;;;;;5052877;28;20454;-66
2021/12/09 06:11:15;;;;;;;0.50;0.50;;;;;;;;;;5061314;28;20601;-65
2021/12/09 06:13:41;;;;;;;0.50;0.50;;;;;;;;;;5060606;28;20253;-66
2021/12/09 06:16:09;;;;;;;0.50;0.50;;;;;;;;;;5072469;28;20421;-66
2021/12/09 06:18:35;;;;;;;0.50;0.50;;;;;;;;;;5071493;28;20263;-65
2021/12/09 06:21:01;;;;;;;0.50;0.50;;;;;;;;;;5070513;28;20171;-66
2021/12/09 06:23:27;;;;;;;0.50;0.50;;;;;;;;;;5071975;28;20178;-66
2021/12/09 06:25:53;;;;;;;0.50;0.50;;;;;;;;;;5057732;28;20820;-66
2021/12/09 06:28:19;;;;;;;0.60;0.60;;;;;;;;;;5053268;28;20430;-66
2021/12/09 06:30:45;;;;;;;0.50;0.50;;;;;;;;;;5052013;28;20435;-65
2021/12/09 06:33:11;;;;;;;0.50;0.50;;;;;;;;;;5067324;28;20208;-67
2021/12/09 06:35:37;;;;;;;0.50;0.50;;;;;;;;;;5066572;28;20480;-64
2021/12/09 06:38:05;;;;;;;0.45;0.45;;;;;;;;;;5041253;28;20438;-64
2021/12/09 06:40:31;;;;;;;0.60;0.60;;;;;;;;;;5053044;28;20267;-66
2021/12/09 06:42:58;;;;;;;0.60;0.60;;;;;;;;;;5056934;28;20210;-66
2021/12/09 06:45:24;;;;;;;0.50;0.50;;;;;;;;;;5053047;28;20204;-66
2021/12/09 06:47:50;;;;;;;0.50;0.50;;;;;;;;;;5052009;28;20177;-65
2021/12/09 06:50:18;;;;;;;0.60;0.60;;;;;;;;;;5069504;28;20180;-66
2021/12/09 06:52:45;;;;;;;0.70;0.70;;;;;;;;;;5071897;28;20179;-66
2021/12/09 06:55:12;;;;;;;0.50;0.50;;;;;;;;;;5071569;28;20259;-66
2021/12/09 06:57:39;;;;;;;0.50;0.50;;;;;;;;;;5071865;28;20203;-66
2021/12/09 07:00:07;;;;;;;0.50;0.50;;;;;;;;;;5058209;28;20205;-64
2021/12/09 07:02:33;;;;;;;0.60;0.60;;;;;;;;;;5060489;28;20187;-65
2021/12/09 07:04:59;;;;;;;0.50;0.50;;;;;;;;;;5064926;28;20265;-66
2021/12/09 07:07:25;;;;;;;0.40;0.40;;;;;;;;;;5051693;28;20731;-66
2021/12/09 07:09:51;;;;;;;0.50;0.50;;;;;;;;;;5062301;28;20186;-66
2021/12/09 07:12:17;;;;;;;0.50;0.50;;;;;;;;;;5063691;28;20826;-65
2021/12/09 07:14:43;;;;;;;0.50;0.50;;;;;;;;;;5055623;28;20421;-66
2021/12/09 07:17:09;;;;;;;0.40;0.40;;;;;;;;;;5052895;28;20198;-66
2021/12/09 07:19:36;;;;;;;0.50;0.50;;;;;;;;;;5054422;28;20197;-66
2021/12/09 07:22:03;;;;;;;0.40;0.40;;;;;;;;;;5071481;28;20186;-66
2021/12/09 07:24:29;;;;;;;0.50;0.50;;;;;;;;;;5091558;28;20175;-66
2021/12/09 07:26:57;;;;;;;0.50;0.50;;;;;;;;;;5079966;28;20195;-65
2021/12/09 07:29:23;;;;;;;0.50;0.50;;;;;;;;;;5091568;28;20504;-66
2021/12/09 07:31:49;;;;;;;0.50;0.50;;;;;;;;;;5090885;28;20189;-61
2021/12/09 07:34:16;;;;;;;0.50;0.50;;;;;;;;;;5090519;28;20253;-63
2021/12/09 07:36:42;;;;;;;0.50;0.50;;;;;;;;;;5078948;28;20677;-66
2021/12/09 07:39:08;;;;;;;0.50;0.50;;;;;;;;;;5091180;28;20202;-67
2021/12/09 07:41:34;;;;;;;0.50;0.50;;;;;;;;;;5091331;28;20181;-67
2021/12/09 07:44:02;;;;;;;0.50;0.50;;;;;;;;;;5091458;28;20202;-66
2021/12/09 07:46:28;;;;;;;0.57;0.57;;;;;;;;;;5091466;28;20183;-66
2021/12/09 07:48:54;;;;;;;0.50;0.50;;;;;;;;;;5091484;28;20628;-66
2021/12/09 07:51:20;;;;;;;0.50;0.50;;;;;;;;;;5091215;28;20171;-66
2021/12/09 07:53:46;;;;;;;0.50;0.50;;;;;;;;;;5091389;28;20414;-66
2021/12/09 07:56:12;;;;;;;0.50;0.50;;;;;;;;;;5091277;28;20293;-65
2021/12/09 07:58:38;;;;;;;0.50;0.50;;;;;;;;;;5091399;28;20466;-67
2021/12/09 08:01:04;;;;;;;0.50;0.50;;;;;;;;;;5091137;28;20180;-66
2021/12/09 08:03:31;;;;;;;0.50;0.50;;;;;;;;;;5091234;28;20403;-66
2021/12/09 08:05:56;;;;;;;0.40;0.40;;;;;;;;;;5091522;28;20191;-66
2021/12/09 08:08:22;;;;;;;0.50;0.50;;;;;;;;;;5091290;28;20177;-65
2021/12/09 08:10:48;;;;;;;0.60;0.60;;;;;;;;;;5090995;28;20410;-66
2021/12/09 08:13:15;;;;;;;0.50;0.50;;;;;;;;;;5091344;28;20653;-65
2021/12/09 08:15:45;;;;;;;0.50;0.50;;;;;;;;;;5094531;28;20427;-66
2021/12/09 08:20:48;;;;;;;0.40;0.40;;;;;;;;;;5095163;28;20181;-66
2021/12/09 08:23:14;;;;;;;0.40;0.40;;;;;;;;;;5095273;28;20176;-66
2021/12/09 08:25:41;;;;;;;0.50;0.50;;;;;;;;;;5094983;28;20192;-66
2021/12/09 08:28:07;;;;;;;0.50;0.50;;;;;;;;;;5094945;28;20619;-66
2021/12/09 08:30:33;;;;;;;0.50;0.50;;;;;;;;;;5074593;28;20256;-67
2021/12/09 08:32:59;;;;;;;0.50;0.50;;;;;;;;;;5074540;28;20169;-67
2021/12/09 08:35:25;;;;;;;0.40;0.40;;;;;;;;;;5074536;28;20189;-67
2021/12/09 08:37:54;;;;;;;0.50;0.50;;;;;;;;;;5074473;28;20176;-67
2021/12/09 08:40:21;;;;;;;0.40;0.40;;;;;;;;;;5074102;28;20253;-67
2021/12/09 08:42:49;;;;;;;0.50;0.50;;;;;;;;;;5074411;28;20258;-67
2021/12/09 08:45:16;;;;;;;0.40;0.40;;;;;;;;;;5074240;28;20580;-67
2021/12/09 08:47:42;;;;;;;0.50;0.50;;;;;;;;;;5072578;28;20211;-67
2021/12/09 08:50:09;;;;;;;0.50;0.50;;;;;;;;;;5085374;28;20176;-65
2021/12/09 08:52:35;;;;;;;0.40;0.40;;;;;;;;;;5094403;28;20185;-67
2021/12/09 08:55:01;;;;;;;0.50;0.50;;;;;;;;;;5094317;28;20184;-66
2021/12/09 08:57:27;;;;;;;0.50;0.50;;;;;;;;;;5076362;28;20189;-66
2021/12/09 08:59:53;;;;;;;0.50;0.50;;;;;;;;;;5094640;28;20498;-66
2021/12/09 09:02:20;;;;;;;0.50;0.50;;;;;;;;;;5093609;28;21068;-66
2021/12/09 09:04:46;;;;;;;0.50;0.50;;;;;;;;;;5094257;28;20408;-68
2021/12/09 09:07:12;;;;;;;0.50;0.50;;;;;;;;;;5094217;28;20272;-67
2021/12/09 09:09:39;;;;;;;0.50;0.50;;;;;;;;;;5094086;28;20819;-67
2021/12/09 09:12:07;;;;;;;0.50;0.50;;;;;;;;;;5093686;28;20448;-65
2021/12/09 09:14:34;;;;;;;0.40;0.40;;;;;;;;;;5094007;28;20207;-66
2021/12/09 09:17:00;;;;;;;0.50;0.50;;;;;;;;;;5093960;28;20239;-66
2021/12/09 09:19:26;;;;;;;0.43;0.43;;;;;;;;;;5094047;28;20198;-68
2021/12/09 09:21:52;;;;;;;0.40;0.40;;;;;;;;;;5093578;28;20175;-67
2021/12/09 09:24:19;;;;;;;0.40;0.40;;;;;;;;;;5093546;28;20339;-67
2021/12/09 09:26:45;;;;;;;0.60;0.60;;;;;;;;;;5093676;28;20196;-67
2021/12/09 09:29:11;;;;;;;0.50;0.50;;;;;;;;;;5093785;28;20172;-66
2021/12/09 09:31:39;;;;;;;0.40;0.40;;;;;;;;;;5093440;28;20718;-66
2021/12/09 09:34:06;;;;;;;0.50;0.50;;;;;;;;;;5093599;28;20436;-66
2021/12/09 09:36:33;;;;;;;0.50;0.50;;;;;;;;;;5075060;28;20211;-65
2021/12/09 09:39:06;;;;;;;0.50;0.50;;;;;;;;;;5093454;28;20713;-66
2021/12/09 09:41:35;;;;;;;0.50;0.50;;;;;;;;;;5093327;28;20576;-66
2021/12/09 09:44:17;;;;;;;0.50;0.50;;;;;;;;;;5093485;28;20177;-66
2021/12/09 09:46:44;;;;;;;0.50;0.50;;;;;;;;;;5092930;28;20231;-66
2021/12/09 09:49:10;;;;;;;0.50;0.50;;;;;;;;;;5093464;28;20180;-66
2021/12/09 09:51:38;;;;;;;0.50;0.50;;;;;;;;;;5093100;28;20183;-66
2021/12/09 09:54:05;;;;;;;0.40;0.40;;;;;;;;;;5092872;28;20182;-66
2021/12/09 09:56:32;;;;;;;0.50;0.50;;;;;;;;;;5092925;28;20240;-66
2021/12/09 09:59:01;;;;;;;0.50;0.50;;;;;;;;;;5093119;28;20684;-64
2021/12/09 10:01:28;;;;;;;0.50;0.50;;;;;;;;;;5093128;28;20182;-66
2021/12/09 10:03:58;;;;;;;0.50;0.50;;;;;;;;;;5093378;28;20178;-66
2021/12/09 10:06:24;;;;;;;0.50;0.50;;;;;;;;;;5093127;28;20603;-66
2021/12/09 10:08:50;;;;;;;0.50;0.50;;;;;;;;;;5092578;28;20267;-64
2021/12/09 10:11:17;;;;;;;0.60;0.60;;;;;;;;;;5092794;28;20638;-67
2021/12/09 10:13:44;;;;;;;0.50;0.50;;;;;;;;;;5092904;28;20181;-66
2021/12/09 10:16:20;;;;;;;0.50;0.50;;;;;;;;;;5092829;28;20196;-67
2021/12/09 10:18:47;;;;;;;0.50;0.50;;;;;;;;;;5092597;28;20196;-67
2021/12/09 10:21:19;;;;;;;0.40;0.40;;;;;;;;;;5092092;28;20177;-67
2021/12/09 10:23:48;;;;;;;0.50;0.50;;;;;;;;;;5092751;28;20334;-67
2021/12/09 10:26:14;;;;;;;0.50;0.50;;;;;;;;;;5092412;28;20192;-67
2021/12/09 10:28:44;;;;;;;0.50;0.50;;;;;;;;;;5092751;28;20810;-67
2021/12/09 10:31:15;;;;;;;0.50;0.50;;;;;;;;;;5091893;28;20490;-67
2021/12/09 10:34:17;;;;;;;0.50;0.50;;;;;;;;;;5092523;28;20184;-67
2021/12/09 10:36:46;;;;;;;0.40;0.40;;;;;;;;;;5040436;28;20206;-66
2021/12/09 10:39:17;;;;;;;0.50;0.50;;;;;;;;;;5092501;28;20197;-67
2021/12/09 10:41:43;;;;;;;0.40;0.40;;;;;;;;;;5091699;28;20174;-67
2021/12/09 10:44:09;;;;;;;0.50;0.50;;;;;;;;;;5092283;28;20586;-67
2021/12/09 10:46:50;;;;;;;0.50;0.50;;;;;;;;;;5074150;28;20236;-67
2021/12/09 10:49:18;;;;;;;0.40;0.40;;;;;;;;;;5082987;28;20181;-67
2021/12/09 10:51:55;;;;;;;0.50;0.50;;;;;;;;;;5088463;28;20186;-67
2021/12/09 10:54:35;;;;;;;0.40;0.40;;;;;;;;;;5091617;28;20530;-66
2021/12/09 10:57:19;;;;;;;0.40;0.40;;;;;;;;;;5109455;22;20767;-66
2021/12/09 10:59:45;;;;;;;0.40;0.40;;;;;;;;;;5085224;28;20198;-66
2021/12/09 11:02:13;;;;;;;0.40;0.40;;;;;;;;;;5086620;28;20234;-66
2021/12/09 11:04:38;;;;;;;0.50;0.50;;;;;;;;;;5089880;28;20234;-66
2021/12/09 11:07:26;;;;;;;0.40;0.40;;;;;;;;;;5090736;28;20672;-66
2021/12/09 11:10:12;;;;;;;0.50;0.50;;;;;;;;;;5073729;28;20427;-66
2021/12/09 11:12:38;;;;;;;0.40;0.40;;;;;;;;;;5091871;28;20202;-66
2021/12/09 11:15:05;;;;;;;0.50;0.50;;;;;;;;;;5090431;28;20263;-66
2021/12/09 11:17:35;;;;;;;0.50;0.50;;;;;;;;;;5091551;28;20479;-66
2021/12/09 11:20:03;;;;;;;0.40;0.40;;;;;;;;;;5091613;28;20545;-66
2021/12/09 11:22:36;;;;;;;0.50;0.50;;;;;;;;;;5073586;28;20228;-66
2021/12/09 11:25:06;;;;;;;0.50;0.50;;;;;;;;;;5091541;28;20169;-66
2021/12/09 11:27:32;;;;;;;0.50;0.50;;;;;;;;;;5091600;28;20180;-66
2021/12/09 11:30:09;;;;;;;0.50;0.50;;;;;;;;;;5091734;28;20652;-66
2021/12/09 11:35:15;;;;;;;0.50;0.50;;;;;;;;;;5091568;28;20192;-66
2021/12/09 11:37:47;;;;;;;0.50;0.50;;;;;;;;;;5091588;28;20196;-66
2021/12/09 11:40:24;;;;;;;0.50;0.50;;;;;;;;;;5091343;28;20300;-66
2021/12/09 11:42:57;;;;;;;0.50;0.50;;;;;;;;;;5091476;28;20205;-66
2021/12/09 11:45:25;;;;;;;0.50;0.50;;;;;;;;;;5091423;28;20166;-66
2021/12/09 11:47:52;;;;;;;0.50;0.50;;;;;;;;;;5091200;28;20165;-66
2021/12/09 11:50:23;;;;;;;0.50;0.50;;;;;;;;;;5092953;28;20177;-66
2021/12/09 11:52:51;;;;;;;0.40;0.40;;;;;;;;;;5095608;28;20177;-66
2021/12/09 11:55:19;;;;;;;0.50;0.50;;;;;;;;;;5095583;28;20166;-66
2021/12/09 11:57:59;;;;;;;0.45;0.45;;;;;;;;;;5077178;28;20573;-66
2021/12/09 12:12:00;;;;;;;0.60;0.60;;;;;;;;;;5095438;28;20276;-66
2021/12/09 12:14:43;;;;;;;0.50;0.50;;;;;;;;;;5095238;28;20204;-66
2021/12/09 12:17:17;;;;;;;0.50;0.50;;;;;;;;;;5095128;28;20619;-66
2021/12/09 12:25:38;;;;;;;0.50;0.50;;;;;;;;;;5095020;28;20177;-66
2021/12/09 12:28:31;;;;;;;0.40;0.40;;;;;;;;;;5094935;28;20646;-67
2021/12/09 12:31:15;;;;;;;0.40;0.40;;;;;;;;;;5094732;28;20194;-66
2021/12/09 12:34:38;;;;;;;0.40;0.40;;;;;;;;;;5094785;28;20797;-66
2021/12/09 12:39:34;;;;;;;0.40;0.40;;;;;;;;;;5094767;28;20214;-66
2021/12/09 12:42:04;;;;;;;0.50;0.50;;;;;;;;;;5094492;28;20240;-66
2021/12/09 12:44:31;;;;;;;0.50;0.50;;;;;;;;;;5094680;28;20165;-66
2021/12/09 12:47:16;;;;;;;0.50;0.50;;;;;;;;;;5076370;28;20679;-66
2021/12/09 12:50:02;;;;;;;0.40;0.40;;;;;;;;;;5094655;28;20173;-66
2021/12/09 12:52:31;;;;;;;0.50;0.50;;;;;;;;;;5076331;28;20184;-66
2021/12/09 12:55:11;;;;;;;0.40;0.40;;;;;;;;;;5093703;28;20201;-65
2021/12/09 12:57:40;;;;;;;0.40;0.40;;;;;;;;;;5094260;28;20327;-66
2021/12/09 13:00:09;;;;;;;0.50;0.50;;;;;;;;;;5093663;28;20205;-66
2021/12/09 13:21:53;;;;;;;0.50;0.50;;;;;;;;;;5054096;28;20693;-66
2021/12/09 13:25:06;;;;;;;0.50;0.50;;;;;;;;;;5055375;28;20257;-66
2021/12/09 13:27:14;;;;;;;0.50;0.50;;;;;;;;;;5069439;28;20206;-66
2021/12/09 13:32:51;;;;;;;0.60;0.60;;;;;;;;;;5073309;28;20590;-66
2021/12/09 13:35:30;;;;;;;0.47;0.47;;;;;;;;;;5055510;28;20181;-66
2021/12/09 13:46:43;;;;;;;0.50;0.50;;;;;;;;;;5073236;28;20580;-66
2021/12/09 13:49:10;;;;;;;0.50;0.50;;;;;;;;;;5072739;28;20205;-66
2021/12/09 13:57:06;;;;;;;0.40;0.40;;;;;;;;;;5067893;28;20219;-66
2021/12/09 13:59:34;;;;;;;0.50;0.50;;;;;;;;;;5073075;28;20209;-66
2021/12/09 14:02:10;;;;;;;0.50;0.50;;;;;;;;;;5072832;28;20667;-66
2021/12/09 14:04:37;;;;;;;0.50;0.50;;;;;;;;;;5072974;28;20169;-66
2021/12/09 14:07:15;;;;;;;0.50;0.50;;;;;;;;;;5072944;28;20197;-67
2021/12/09 14:09:43;;;;;;;0.50;0.50;;;;;;;;;;5072957;28;20165;-66
2021/12/09 14:12:09;;;;;;;0.50;0.50;;;;;;;;;;5071734;28;20181;-67
2021/12/09 14:15:13;;;;;;;0.47;0.47;;;;;;;;;;5072772;28;20179;-66
2021/12/09 14:17:28;;;;;;;0.50;0.50;;;;;;;;;;5071381;28;20321;-66
2021/12/09 14:20:06;;;;;;;0.40;0.40;;;;;;;;;;5072562;28;20584;-66
2021/12/09 14:22:39;;;;;;;0.40;0.40;;;;;;;;;;5073253;28;20253;-66
2021/12/09 14:25:09;;;;;;;0.50;0.50;;;;;;;;;;5092562;28;20230;-66
2021/12/09 14:27:36;;;;;;;0.50;0.50;;;;;;;;;;5092037;28;20216;-66
2021/12/09 14:30:04;;;;;;;0.50;0.50;;;;;;;;;;5073574;28;20212;-67
2021/12/09 14:32:30;;;;;;;0.50;0.50;;;;;;;;;;5091514;28;20170;-66
2021/12/09 14:34:58;;;;;;;0.40;0.40;;;;;;;;;;5091642;28;20179;-66
2021/12/09 14:37:27;;;;;;;0.50;0.50;;;;;;;;;;5091921;28;20197;-67
2021/12/09 14:40:13;;;;;;;0.40;0.40;;;;;;;;;;5092095;28;20591;-66
2021/12/09 14:43:08;;;;;;;0.40;0.40;;;;;;;;;;5074197;28;20165;-66
2021/12/09 14:45:36;;;;;;;0.40;0.40;;;;;;;;;;5089578;28;20552;-66
2021/12/09 14:48:04;;;;;;;0.40;0.40;;;;;;;;;;5091880;28;20174;-66
2021/12/09 14:50:31;;;;;;;0.40;0.40;;;;;;;;;;5092170;28;20247;-66
2021/12/09 14:52:57;;;;;;;0.50;0.50;;;;;;;;;;5092369;28;20179;-66
2021/12/09 14:55:25;;;;;;;0.50;0.50;;;;;;;;;;5092133;28;20237;-67
2021/12/09 14:57:54;;;;;;;0.50;0.50;;;;;;;;;;5091974;28;20315;-67
2021/12/09 15:00:39;;;;;;;0.50;0.50;;;;;;;;;;5091518;28;20228;-66
2021/12/09 15:03:07;;;;;;;0.50;0.50;;;;;;;;;;5092095;28;20177;-66
2021/12/09 15:05:43;;;;;;;0.40;0.40;;;;;;;;;;5090034;28;20173;-66
2021/12/09 15:08:11;;;;;;;0.50;0.50;;;;;;;;;;5083788;28;20184;-66
2021/12/09 15:10:38;;;;;;;0.50;0.50;;;;;;;;;;5090985;28;20199;-66
2021/12/09 15:13:06;;;;;;;0.50;0.50;;;;;;;;;;5091937;28;20180;-67
2021/12/09 15:15:33;;;;;;;0.50;0.50;;;;;;;;;;5091789;28;20585;-66
2021/12/09 15:18:01;;;;;;;0.50;0.50;;;;;;;;;;5091851;28;20568;-66
2021/12/09 15:20:52;;;;;;;0.50;0.50;;;;;;;;;;5091208;28;20240;-66
2021/12/09 15:23:44;;;;;;;0.50;0.50;;;;;;;;;;5091607;28;20162;-66
2021/12/09 15:26:29;;;;;;;0.50;0.50;;;;;;;;;;5091796;28;20233;-66
2021/12/09 15:29:03;;;;;;;0.50;0.50;;;;;;;;;;5091747;28;20583;-66
2021/12/09 15:31:29;;;;;;;0.50;0.50;;;;;;;;;;5091315;28;20664;-66
2021/12/09 15:33:55;;;;;;;0.50;0.50;;;;;;;;;;5091419;28;20541;-66
2021/12/09 15:36:32;;;;;;;0.40;0.40;;;;;;;;;;5091715;28;20191;-66
2021/12/09 15:39:16;;;;;;;0.50;0.50;;;;;;;;;;5091522;28;20199;-66
2021/12/09 15:41:42;;;;;;;0.50;0.50;;;;;;;;;;5091478;28;20162;-66
2021/12/09 15:44:13;;;;;;;0.40;0.40;;;;;;;;;;5089366;28;20201;-66
2021/12/09 15:46:45;;;;;;;0.50;0.50;;;;;;;;;;5091627;28;20188;-66
2021/12/09 15:49:12;;;;;;;0.50;0.50;;;;;;;;;;5091455;28;20649;-66
2021/12/09 15:51:40;;;;;;;0.47;0.47;;;;;;;;;;5091391;28;20644;-66
2021/12/09 15:54:06;;;;;;;0.50;0.50;;;;;;;;;;5090753;28;20254;-66
2021/12/09 15:56:44;;;;;;;0.50;0.50;;;;;;;;;;5091283;28;20289;-66